Terminal Aerodrome Forecast
Issued by NWS Bismarck, ND

Home | Current Version | Previous Version | Text Only | Print | Product List | Glossary Off
Versions: 1 2 3 4 5 6 7 8 9 10 11 12 13 14 15 16 17 18

000
FTUS43 KBIS 270900 AAA
TAFBIS
TAF AMD
KBIS 270930Z 2710/2806 32010KT P6SM SCT040 BKN070
      TEMPO 2711/2715 BKN025
     FM271500 35013KT P6SM SCT025 BKN035
     FM271800 35012KT P6SM SCT045
     FM280200 03008KT P6SM SKC=

USA.gov is the U.S. government's official web portal to all federal, state and local government web resources and services.